TFM - Tactical Decision Aid
ID: Runway Winds: CIG/VIS Threshold:

KEWR - Newark Intl, NJ, US

Updated at: 0053 UTC 12 May 2021
Latest TAF at: 2336 UTC 11 May 2021

TAF Board

Time0051Z 12/01Z 12/02Z 12/03Z 12/04Z 12/05Z 12/06Z 12/07Z 12/08Z 12/09Z 12/10Z 12/11Z 12/12Z 12/13Z>>
Type OBS PRVL PRVL PRVL PRVL PRVL PRVL PRVL PRVL PRVL PRVL PRVL PRVL PRVL
VIS 10 >6 >6 >6 >6 >6 >6 >6 >6 >6 >6 >6 >6 >6
CIG 110 100 100 100 100 100 100 100 100 100 100 -- -- --
Cover BKN BKN BKN BKN BKN BKN BKN BKN BKN BKN BKN SCT SCT SCT
FltCat VFR VFR VFR VFR VFR VFR VFR VFR VFR VFR VFR VFR VFR VFR
WX -- -- -- -- -- -- -- -- -- -- -- -- -- --
WDir 300 300 300 300 300 300 300 300 300 300 300 320 320 320
WSpd 8 12 12 12 12 12 12 12 12 12 12 12 12 12
WGst -- -- -- -- -- -- -- -- -- -- -- 19 19 19

TDA Impact Legend

  None Marginal Slight Moderate High
Visibility (sm) >5 3≤X≤5 1≤X<3 0.5≤X<1 <0.5
Ceiling (100 ft) >30 10≤X≤30 4≤X<10 2≤X<4 <2
Wind Speed (kt) <15 15≤X<25 25≤X<30 ≥30
Wind Gust (kt) <15 15≤X<25 25≤X<35 ≥35
Weather No Wx Reported VCTS -TS,-FZRA TS,FZRA +TS,+FZRA
TAF
KEWR 112336Z 1200/1306 28012G18KT P6SM VCSH BKN060
  FM120100 30012KT P6SM SCT060 BKN100 BKN250
  FM121100 32012G19KT P6SM SCT050
  FM121800 31014G22KT P6SM SCT250
  FM122200 31011KT P6SM SCT250
  FM130100 33007KT P6SM FEW250


METAR
KEWR 120051Z 30008KT 10SM FEW070 BKN110 BKN250 14/01 A3004 RMK AO2 SLP170 T01440011
KEWR 112351Z 30011KT 10SM FEW060 BKN075 BKN100 17/01 A3002 RMK AO2 SLP164 VCSH S-SW T01670011 10211 20167 51014
KEWR 112251Z 30013G21KT 10SM FEW060 SCT075 BKN090 17/01 A3000 RMK AO2 WSHFT 2138 SLP159 T01720006
KEWR 112158Z 29016G23KT 10SM FEW050 BKN075 BKN090 18/00 A3000 RMK AO2 WSHFT 2138 VCSH T01780000
KEWR 112151Z 31013KT 10SM FEW050 BKN075 BKN090 18/M01 A3000 RMK AO2 WSHFT 2136 SLP156 VCSH T01781006

Radar Display
Forecast Discussion